createdAt,value
2023-03-29T00:00:24.247Z,159.01
2023-03-29T00:01:35.371Z,159.84
2023-03-29T00:02:24.300Z,159.98
2023-03-29T00:03:24.306Z,160.38
2023-03-29T00:04:24.352Z,160.27
2023-03-29T00:05:24.199Z,160.84
2023-03-29T00:06:24.185Z,160.14
2023-03-29T00:07:23.185Z,162.05
2023-03-29T00:08:24.187Z,161.48
2023-03-29T00:09:24.168Z,159.75
2023-03-29T00:10:24.255Z,160.34
2023-03-29T00:11:24.159Z,161.70
2023-03-29T00:12:24.157Z,161.95
2023-03-29T00:13:24.147Z,162.38
2023-03-29T00:14:23.129Z,159.70
2023-03-29T00:15:24.130Z,159.06
2023-03-29T00:16:24.169Z,158.57
2023-03-29T00:17:24.133Z,161.10
2023-03-29T00:18:23.109Z,157.43
2023-03-29T00:19:24.105Z,158.41
2023-03-29T00:20:24.101Z,159.10
2023-03-29T00:21:24.119Z,160.12
2023-03-29T00:22:23.086Z,160.05
2023-03-29T00:23:24.082Z,159.48
2023-03-29T00:24:24.064Z,159.15
2023-03-29T00:25:24.082Z,160.35
2023-03-29T00:26:24.066Z,160.73
2023-03-29T00:27:24.071Z,160.91
2023-03-29T00:28:24.049Z,159.37
2023-03-29T00:29:24.045Z,159.24
2023-03-29T00:30:24.043Z,157.76
2023-03-29T00:31:24.045Z,160.73
2023-03-29T00:32:24.070Z,158.01
2023-03-29T00:33:24.020Z,160.71
2023-03-29T00:34:24.025Z,160.74
2023-03-29T00:35:24.011Z,159.18
2023-03-29T00:36:24.004Z,160.72
2023-03-29T00:37:23.992Z,161.55
2023-03-29T00:38:23.991Z,160.78
2023-03-29T00:39:23.961Z,160.32
2023-03-29T00:40:23.973Z,159.22
2023-03-29T00:41:23.950Z,161.69
2023-03-29T00:42:23.965Z,159.04
2023-03-29T00:43:23.946Z,159.10
2023-03-29T00:44:24.055Z,157.75
2023-03-29T00:45:23.995Z,159.12
2023-03-29T00:46:24.108Z,160.16
2023-03-29T00:47:23.073Z,158.10
2023-03-29T00:48:24.115Z,158.12
2023-03-29T00:49:23.142Z,157.96
2023-03-29T00:50:24.143Z,159.11
2023-03-29T00:51:23.178Z,158.52
2023-03-29T00:52:24.222Z,158.65
2023-03-29T00:53:24.256Z,158.69
2023-03-29T00:54:23.275Z,159.92
2023-03-29T00:55:24.300Z,158.43
2023-03-29T00:56:24.339Z,159.77
2023-03-29T00:57:26.464Z,160.76
2023-03-29T00:58:24.383Z,160.89
2023-03-29T00:59:24.362Z,161.03
2023-03-29T01:00:24.353Z,161.29
2023-03-29T01:01:24.366Z,160.31
2023-03-29T01:02:24.354Z,159.91
2023-03-29T01:03:24.385Z,161.11
2023-03-29T01:04:24.352Z,160.87
2023-03-29T01:05:24.329Z,158.30
2023-03-29T01:06:24.307Z,159.59
2023-03-29T01:07:24.323Z,159.48
2023-03-29T01:08:24.307Z,161.47
2023-03-29T01:09:24.283Z,161.93
2023-03-29T01:10:24.272Z,157.33
2023-03-29T01:11:24.264Z,158.52
2023-03-29T01:12:24.275Z,159.07
2023-03-29T01:13:24.284Z,161.41
2023-03-29T01:14:24.257Z,160.73
2023-03-29T01:15:23.254Z,158.36
2023-03-29T01:16:24.306Z,162.39
2023-03-29T01:17:24.258Z,158.75
2023-03-29T01:18:24.234Z,160.42
2023-03-29T01:19:24.229Z,160.25
2023-03-29T01:20:24.232Z,161.50
2023-03-29T01:21:24.200Z,158.59
2023-03-29T01:22:24.196Z,158.49
2023-03-29T01:23:23.185Z,159.14
2023-03-29T01:24:24.176Z,158.94
2023-03-29T01:25:23.167Z,160.82
2023-03-29T01:26:24.174Z,161.57
2023-03-29T01:27:24.166Z,162.14
2023-03-29T01:28:24.137Z,161.37
2023-03-29T01:29:24.148Z,159.80
2023-03-29T01:30:24.201Z,160.00
2023-03-29T01:31:24.273Z,160.73
2023-03-29T01:32:24.324Z,159.37
2023-03-29T01:33:23.354Z,161.33
2023-03-29T01:34:24.376Z,160.47
2023-03-29T01:35:24.427Z,159.91
2023-03-29T01:36:23.476Z,159.05
2023-03-29T01:37:24.492Z,159.50
2023-03-29T01:38:24.545Z,158.67
2023-03-29T01:39:23.577Z,160.04
2023-03-29T01:40:24.633Z,158.62
2023-03-29T01:41:23.676Z,160.32
2023-03-29T01:42:23.703Z,160.26
2023-03-29T01:43:24.751Z,160.10
2023-03-29T01:44:24.825Z,158.39
2023-03-29T01:45:23.857Z,159.90
2023-03-29T01:46:24.988Z,157.71
2023-03-29T01:47:24.967Z,159.56
2023-03-29T01:48:25.005Z,158.37
2023-03-29T01:49:25.026Z,157.80
2023-03-29T01:50:25.080Z,156.42
2023-03-29T01:51:24.095Z,158.19
2023-03-29T01:52:25.142Z,156.54
2023-03-29T01:53:25.150Z,160.10
2023-03-29T01:54:25.186Z,165.25
2023-03-29T01:55:25.210Z,172.38
2023-03-29T01:56:25.264Z,172.09
2023-03-29T01:57:25.447Z,171.76
2023-03-29T01:58:25.330Z,175.38
2023-03-29T01:59:25.352Z,178.50
2023-03-29T02:00:25.411Z,181.44
2023-03-29T02:01:24.470Z,180.25
2023-03-29T02:02:25.477Z,182.45
2023-03-29T02:03:25.574Z,181.26
2023-03-29T02:04:24.540Z,185.74
2023-03-29T02:05:25.547Z,178.35
2023-03-29T02:06:25.580Z,175.62
2023-03-29T02:07:25.601Z,172.42
2023-03-29T02:08:25.654Z,168.14
2023-03-29T02:09:25.623Z,165.32
2023-03-29T02:10:24.641Z,163.64
2023-03-29T02:11:25.640Z,161.50
2023-03-29T02:12:25.649Z,163.96
2023-03-29T02:13:25.650Z,163.14
2023-03-29T02:14:24.678Z,160.61
2023-03-29T02:15:25.702Z,157.48
2023-03-29T02:16:25.640Z,157.14
2023-03-29T02:17:24.712Z,156.11
2023-03-29T02:18:25.651Z,153.39
2023-03-29T02:19:25.667Z,154.33
2023-03-29T02:20:25.686Z,154.75
2023-03-29T02:21:25.698Z,152.76
2023-03-29T02:22:25.739Z,151.01
2023-03-29T02:23:25.767Z,151.95
2023-03-29T02:24:25.806Z,150.04
2023-03-29T02:25:25.803Z,148.85
2023-03-29T02:26:25.883Z,149.49
2023-03-29T02:27:25.895Z,149.52
2023-03-29T02:28:25.941Z,147.24
2023-03-29T02:29:24.996Z,147.64
2023-03-29T02:30:26.060Z,146.44
2023-03-29T02:31:26.221Z,146.80
2023-03-29T02:32:26.267Z,145.89
2023-03-29T02:33:26.273Z,144.85
2023-03-29T02:34:26.327Z,145.42
2023-03-29T02:35:25.381Z,145.76
2023-03-29T02:36:26.423Z,143.76
2023-03-29T02:37:26.517Z,144.40
2023-03-29T02:38:26.531Z,144.46
2023-03-29T02:39:26.591Z,144.74
2023-03-29T02:40:26.676Z,142.16
2023-03-29T02:41:26.703Z,142.37
2023-03-29T02:42:26.792Z,143.33
2023-03-29T02:43:26.136Z,144.62
2023-03-29T02:44:26.843Z,142.75
2023-03-29T02:45:26.911Z,140.88
2023-03-29T02:46:26.994Z,141.46
2023-03-29T02:47:26.026Z,140.35
2023-03-29T02:48:27.054Z,140.42
2023-03-29T02:49:26.090Z,141.69
2023-03-29T02:50:27.148Z,140.86
2023-03-29T02:51:27.181Z,141.76
2023-03-29T02:52:27.210Z,139.97
2023-03-29T02:53:27.261Z,138.59
2023-03-29T02:54:27.317Z,139.43
2023-03-29T02:55:27.350Z,137.71
2023-03-29T02:56:27.421Z,138.90
2023-03-29T02:57:27.429Z,139.89
2023-03-29T02:58:27.464Z,139.94
2023-03-29T02:59:27.501Z,137.99
2023-03-29T03:00:26.560Z,138.82
2023-03-29T03:01:27.638Z,138.02
2023-03-29T03:02:26.653Z,137.39
2023-03-29T03:03:27.813Z,138.31
2023-03-29T03:04:26.735Z,138.36
2023-03-29T03:05:27.766Z,137.04
2023-03-29T03:06:27.806Z,136.93
2023-03-29T03:07:27.843Z,136.87
2023-03-29T03:08:27.895Z,138.64
2023-03-29T03:09:27.924Z,137.58
2023-03-29T03:10:27.981Z,138.47
2023-03-29T03:11:27.998Z,139.35
2023-03-29T03:12:28.069Z,138.94
2023-03-29T03:13:27.080Z,138.96
2023-03-29T03:14:27.081Z,138.99
2023-03-29T03:15:28.114Z,139.73
2023-03-29T03:16:28.191Z,139.62
2023-03-29T03:17:27.200Z,138.72
2023-03-29T03:18:28.201Z,137.98
2023-03-29T03:19:28.228Z,140.97
2023-03-29T03:20:28.261Z,141.33
2023-03-29T03:21:28.335Z,137.63
2023-03-29T03:22:28.337Z,138.55
2023-03-29T03:23:28.364Z,138.84
2023-03-29T03:24:28.397Z,139.76
2023-03-29T03:25:28.443Z,139.00
2023-03-29T03:26:28.479Z,146.27
2023-03-29T03:27:28.522Z,144.96
2023-03-29T03:28:28.579Z,140.65
2023-03-29T03:29:27.604Z,140.82
2023-03-29T03:30:27.649Z,142.06
2023-03-29T03:31:28.743Z,140.44
2023-03-29T03:32:28.743Z,139.55
2023-03-29T03:33:28.765Z,139.39
2023-03-29T03:34:27.800Z,139.49
2023-03-29T03:35:28.871Z,140.48
2023-03-29T03:36:28.865Z,139.10
2023-03-29T03:37:28.894Z,138.40
2023-03-29T03:38:28.946Z,138.92
2023-03-29T03:39:28.998Z,139.89
2023-03-29T03:40:29.058Z,139.95
2023-03-29T03:41:29.069Z,139.48
2023-03-29T03:42:28.129Z,137.77
2023-03-29T03:43:28.147Z,138.82
2023-03-29T03:44:29.216Z,138.72
2023-03-29T03:45:29.266Z,138.73
2023-03-29T03:46:29.576Z,135.26
2023-03-29T03:47:29.427Z,138.72
2023-03-29T03:48:29.371Z,138.83
2023-03-29T03:49:28.397Z,140.10
2023-03-29T03:50:29.465Z,143.28
2023-03-29T03:51:29.480Z,141.95
2023-03-29T03:52:30.034Z,140.18
2023-03-29T03:53:29.570Z,141.24
2023-03-29T03:54:29.609Z,141.44
2023-03-29T03:55:29.674Z,139.96
2023-03-29T03:56:29.706Z,140.34
2023-03-29T03:57:29.775Z,140.40
2023-03-29T03:58:29.799Z,142.25
2023-03-29T03:59:30.287Z,142.50
2023-03-29T04:00:29.932Z,141.06
2023-03-29T04:01:29.937Z,140.19
2023-03-29T04:02:29.023Z,144.11
2023-03-29T04:03:29.095Z,140.52
2023-03-29T04:04:30.106Z,145.47
2023-03-29T04:05:30.184Z,145.42
2023-03-29T04:06:30.172Z,149.95
2023-03-29T04:07:30.229Z,150.71
2023-03-29T04:08:30.270Z,147.22
2023-03-29T04:09:30.316Z,145.86
2023-03-29T04:10:30.459Z,152.58
2023-03-29T04:11:30.449Z,147.56
2023-03-29T04:12:29.484Z,146.91
2023-03-29T04:13:30.526Z,153.93
2023-03-29T04:14:30.568Z,152.30
2023-03-29T04:15:29.643Z,157.36
2023-03-29T04:16:30.882Z,156.09
2023-03-29T04:17:30.807Z,160.53
2023-03-29T04:18:30.875Z,163.42
2023-03-29T04:19:30.847Z,162.44
2023-03-29T04:20:29.907Z,167.60
2023-03-29T04:21:30.966Z,160.25
2023-03-29T04:22:31.007Z,162.60
2023-03-29T04:23:31.104Z,169.27
2023-03-29T04:24:31.124Z,164.17
2023-03-29T04:25:31.179Z,161.71
2023-03-29T04:26:31.251Z,160.46
2023-03-29T04:27:31.289Z,155.83
2023-03-29T04:28:31.361Z,154.33
2023-03-29T04:29:30.407Z,152.06
2023-03-29T04:30:30.457Z,152.47
2023-03-29T04:31:31.576Z,155.90
2023-03-29T04:32:31.660Z,154.55
2023-03-29T04:33:31.668Z,155.03
2023-03-29T04:34:31.678Z,158.79
2023-03-29T04:35:31.863Z,161.80
2023-03-29T04:36:31.787Z,157.55
2023-03-29T04:37:31.828Z,155.21
2023-03-29T04:38:31.885Z,163.24
2023-03-29T04:39:32.076Z,159.13
2023-03-29T04:40:31.007Z,154.77
2023-03-29T04:41:31.048Z,155.98
2023-03-29T04:42:32.102Z,155.24
2023-03-29T04:43:32.151Z,156.44
2023-03-29T04:44:31.227Z,155.13
2023-03-29T04:45:31.255Z,154.42
2023-03-29T04:46:32.477Z,152.27
2023-03-29T04:47:32.379Z,152.14
2023-03-29T04:48:32.434Z,151.75
2023-03-29T04:49:31.461Z,148.25
2023-03-29T04:50:32.502Z,152.67
2023-03-29T04:51:32.564Z,151.24
2023-03-29T04:52:32.604Z,150.79
2023-03-29T04:53:31.652Z,153.82
2023-03-29T04:54:32.706Z,153.33
2023-03-29T04:55:32.757Z,151.04
2023-03-29T04:56:32.795Z,149.05
2023-03-29T04:57:32.850Z,150.38
2023-03-29T04:58:32.987Z,152.47
2023-03-29T04:59:32.924Z,149.71
2023-03-29T05:00:32.956Z,148.72
2023-03-29T05:01:33.062Z,149.71
2023-03-29T05:02:33.083Z,147.44
2023-03-29T05:03:33.109Z,146.21
2023-03-29T05:04:33.286Z,146.65
2023-03-29T05:10:32.394Z,154.75
2023-03-29T05:11:33.447Z,157.27
2023-03-29T05:12:33.478Z,156.06
2023-03-29T05:14:32.599Z,153.31
2023-03-29T05:15:33.646Z,156.44
2023-03-29T05:21:32.905Z,154.41
2023-03-29T05:22:33.947Z,154.88
2023-03-29T05:23:33.998Z,155.68
2023-03-29T05:24:34.044Z,159.51
2023-03-29T05:25:34.088Z,158.92
2023-03-29T05:26:34.190Z,155.31
2023-03-29T05:27:34.197Z,159.30
2023-03-29T05:28:34.257Z,158.68
2023-03-29T05:29:34.300Z,163.05
2023-03-29T05:34:33.570Z,170.04
2023-03-29T05:35:34.642Z,173.32
2023-03-29T05:38:33.781Z,183.79
2023-03-29T05:39:37.573Z,186.60
2023-03-29T05:42:33.760Z,198.21
2023-03-29T05:43:34.774Z,201.32
2023-03-29T05:44:34.748Z,187.67
2023-03-29T05:47:33.757Z,197.46
2023-03-29T05:48:34.740Z,186.57
2023-03-29T05:51:34.161Z,186.97
2023-03-29T05:52:34.736Z,190.02
2023-03-29T05:57:33.777Z,211.96
2023-03-29T05:58:34.666Z,202.82
2023-03-29T05:59:34.647Z,197.48
2023-03-29T06:00:37.891Z,193.46
2023-03-29T06:02:33.738Z,194.57
2023-03-29T06:03:34.774Z,196.84
2023-03-29T06:05:34.643Z,194.32
2023-03-29T06:06:34.644Z,197.08
2023-03-29T06:08:33.627Z,207.44
2023-03-29T06:09:34.610Z,216.32
2023-03-29T06:10:34.624Z,220.76
2023-03-29T06:12:33.883Z,232.10
2023-03-29T06:13:34.638Z,232.05
2023-03-29T06:14:34.581Z,234.85
2023-03-29T06:15:34.550Z,238.78
2023-03-29T06:16:34.607Z,243.00
2023-03-29T06:18:33.522Z,243.55
2023-03-29T06:19:33.916Z,247.90
2023-03-29T06:20:33.727Z,250.00
2023-03-29T06:21:34.550Z,249.93
2023-03-29T06:22:34.524Z,249.27
2023-03-29T06:23:34.672Z,248.79
2023-03-29T06:24:34.509Z,249.79
2023-03-29T06:28:33.463Z,244.05
2023-03-29T06:29:34.522Z,250.19
2023-03-29T06:30:34.438Z,248.15
2023-03-29T06:32:33.455Z,248.24
2023-03-29T06:33:34.480Z,250.00
2023-03-29T06:34:36.632Z,247.01
2023-03-29T06:35:34.521Z,247.29
2023-03-29T06:36:34.448Z,248.39
2023-03-29T06:37:34.383Z,251.22
2023-03-29T06:41:33.414Z,250.53
2023-03-29T06:42:35.202Z,249.58
2023-03-29T06:43:34.735Z,250.00
2023-03-29T06:44:34.456Z,248.79
2023-03-29T06:45:34.455Z,250.00
2023-03-29T06:46:34.469Z,249.46
2023-03-29T06:47:34.698Z,247.13
2023-03-29T06:49:33.309Z,247.06
2023-03-29T06:50:34.324Z,250.47
2023-03-29T06:54:33.274Z,205.84
2023-03-29T06:55:33.601Z,160.31
2023-03-29T06:56:34.308Z,171.17
2023-03-29T06:57:34.711Z,183.65
2023-03-29T06:58:34.395Z,191.17
2023-03-29T06:59:34.447Z,201.52
2023-03-29T07:00:33.295Z,203.38
2023-03-29T07:01:34.369Z,211.69
2023-03-29T07:02:34.380Z,216.38
2023-03-29T07:03:34.412Z,212.68
2023-03-29T07:04:34.459Z,209.18
2023-03-29T07:06:33.423Z,217.64
2023-03-29T07:07:34.506Z,220.75
2023-03-29T07:08:34.436Z,220.03
2023-03-29T07:09:34.463Z,219.20
2023-03-29T07:10:34.469Z,216.67
2023-03-29T07:12:33.554Z,221.14
2023-03-29T07:13:34.903Z,224.56
2023-03-29T07:14:34.884Z,224.40
2023-03-29T07:15:33.685Z,224.40
2023-03-29T07:16:34.900Z,228.29
2023-03-29T07:17:34.644Z,231.11
2023-03-29T07:18:34.674Z,238.06
2023-03-29T07:19:35.077Z,241.31
2023-03-29T07:20:34.870Z,242.93
2023-03-29T07:21:36.685Z,243.95
2023-03-29T07:22:34.950Z,244.15
2023-03-29T07:23:33.816Z,245.05
2023-03-29T07:24:34.815Z,246.47
2023-03-29T07:25:34.805Z,248.39
2023-03-29T07:28:33.836Z,245.59
2023-03-29T07:29:35.120Z,246.71
2023-03-29T07:30:34.804Z,250.00
2023-03-29T07:31:34.846Z,249.48
2023-03-29T07:32:34.874Z,248.39
2023-03-29T07:33:34.890Z,246.55
2023-03-29T07:37:33.754Z,249.13
2023-03-29T07:38:34.772Z,250.00
2023-03-29T07:39:34.737Z,248.73
2023-03-29T07:44:33.711Z,249.65
2023-03-29T07:45:34.771Z,248.78
2023-03-29T07:46:40.158Z,245.28
2023-03-29T07:48:33.984Z,245.61
2023-03-29T07:49:34.736Z,246.73
2023-03-29T07:53:33.606Z,247.37
2023-03-29T07:54:33.588Z,250.00
2023-03-29T07:55:34.570Z,249.05
2023-03-29T07:56:34.583Z,248.40
2023-03-29T07:57:34.596Z,247.60
2023-03-29T08:02:34.262Z,243.15
2023-03-29T08:03:34.534Z,242.48
2023-03-29T08:05:40.778Z,241.93
2023-03-29T08:06:34.505Z,241.96
2023-03-29T08:07:34.485Z,241.51
2023-03-29T08:08:34.479Z,239.30
2023-03-29T08:13:34.171Z,236.48
2023-03-29T08:14:38.191Z,236.27
2023-03-29T08:16:33.542Z,235.60
2023-03-29T08:17:34.446Z,234.52
2023-03-29T08:18:34.913Z,235.02
2023-03-29T08:21:33.439Z,233.00
2023-03-29T08:22:34.410Z,233.31
2023-03-29T08:23:34.378Z,232.09
2023-03-29T08:24:34.404Z,234.36
2023-03-29T08:27:33.341Z,231.00
2023-03-29T08:28:34.319Z,230.72
2023-03-29T08:29:34.399Z,231.30
2023-03-29T08:32:33.388Z,228.44
2023-03-29T08:34:33.276Z,228.23
2023-03-29T08:35:34.315Z,229.19
2023-03-29T08:37:33.742Z,226.80
2023-03-29T08:38:36.184Z,226.38
2023-03-29T08:43:33.315Z,224.06
2023-03-29T08:44:34.342Z,224.68
2023-03-29T08:45:34.277Z,222.89
2023-03-29T08:48:33.267Z,223.64
2023-03-29T08:49:33.221Z,222.54
2023-03-29T08:50:34.300Z,222.04
2023-03-29T08:54:33.223Z,219.40
2023-03-29T08:55:34.306Z,219.83
2023-03-29T08:59:33.250Z,218.73
2023-03-29T09:00:34.176Z,216.88
2023-03-29T09:04:33.276Z,212.48
2023-03-29T09:05:34.135Z,212.60
2023-03-29T09:09:33.139Z,209.79
2023-03-29T09:10:34.084Z,209.89
2023-03-29T09:11:34.086Z,209.79
2023-03-29T09:12:35.830Z,208.90
2023-03-29T09:15:33.077Z,208.28
2023-03-29T09:16:34.138Z,208.08
2023-03-29T09:17:34.075Z,207.58
2023-03-29T09:18:33.034Z,206.97
2023-03-29T09:19:34.046Z,206.60
2023-03-29T09:20:33.119Z,206.01
2023-03-29T09:21:34.043Z,204.18
2023-03-29T09:26:32.983Z,209.86
2023-03-29T09:27:33.978Z,209.39
2023-03-29T09:28:33.971Z,206.88
2023-03-29T09:30:32.978Z,205.11
2023-03-29T09:31:33.986Z,203.59
2023-03-29T09:34:32.935Z,208.98
2023-03-29T09:35:33.966Z,214.11
2023-03-29T09:36:32.993Z,212.14
2023-03-29T09:37:33.926Z,212.29
2023-03-29T09:39:32.892Z,213.40
2023-03-29T09:40:33.907Z,214.23
2023-03-29T09:41:33.906Z,209.73
2023-03-29T09:42:33.964Z,216.85
2023-03-29T09:46:32.854Z,203.18
2023-03-29T09:47:33.876Z,207.28
2023-03-29T09:48:33.232Z,204.36
2023-03-29T09:49:33.774Z,194.76
2023-03-29T09:50:33.969Z,181.65
2023-03-29T09:52:32.912Z,145.32
2023-03-29T09:53:34.281Z,132.99
2023-03-29T09:54:32.757Z,124.73
2023-03-29T09:55:33.783Z,115.42
2023-03-29T09:56:33.735Z,96.85
2023-03-29T09:57:33.744Z,92.07
2023-03-29T09:58:33.736Z,78.27
2023-03-29T10:02:32.708Z,69.77
2023-03-29T10:03:33.704Z,66.86
2023-03-29T10:04:33.749Z,60.73
2023-03-29T10:05:33.711Z,59.39
2023-03-29T10:06:33.712Z,56.75
2023-03-29T10:07:33.722Z,55.75
2023-03-29T10:08:33.792Z,50.20
2023-03-29T10:09:32.827Z,57.51
2023-03-29T10:10:33.811Z,71.63
2023-03-29T10:11:33.867Z,85.12
2023-03-29T10:12:32.877Z,87.94
2023-03-29T10:13:33.887Z,87.04
2023-03-29T10:16:33.077Z,94.59
2023-03-29T10:17:34.137Z,94.00
2023-03-29T10:18:34.137Z,97.03
2023-03-29T10:19:34.146Z,97.39
2023-03-29T10:20:34.189Z,101.14
2023-03-29T10:21:34.212Z,110.11
2023-03-29T10:22:34.199Z,116.01
2023-03-29T10:25:33.858Z,124.68
2023-03-29T10:26:33.237Z,127.80
2023-03-29T10:27:34.244Z,127.45
2023-03-29T10:28:34.385Z,130.48
2023-03-29T10:29:34.564Z,135.01
2023-03-29T10:30:34.534Z,136.98
2023-03-29T10:31:34.517Z,139.45
2023-03-29T10:32:34.560Z,145.79
2023-03-29T10:34:33.582Z,158.20
2023-03-29T10:35:34.825Z,158.64
2023-03-29T10:36:34.849Z,162.97
2023-03-29T10:37:35.074Z,169.99
2023-03-29T10:38:34.861Z,172.62
2023-03-29T10:40:33.942Z,173.09
2023-03-29T10:41:35.330Z,169.84
2023-03-29T10:42:35.195Z,172.17
2023-03-29T10:43:35.299Z,174.08
2023-03-29T10:44:36.884Z,175.16
2023-03-29T10:45:35.229Z,177.51
2023-03-29T10:46:37.017Z,182.25
2023-03-29T10:47:35.170Z,182.30
2023-03-29T10:49:34.099Z,180.46
2023-03-29T10:50:35.053Z,179.28
2023-03-29T10:51:35.354Z,178.82
2023-03-29T10:52:35.086Z,180.16
2023-03-29T10:53:35.219Z,178.84
2023-03-29T10:56:33.971Z,177.87
2023-03-29T10:57:34.978Z,178.65
2023-03-29T10:58:34.963Z,178.60
2023-03-29T11:00:33.907Z,182.59
2023-03-29T11:01:34.992Z,183.83
2023-03-29T11:02:35.035Z,184.05
2023-03-29T11:03:34.689Z,183.06
2023-03-29T11:04:34.881Z,186.99
2023-03-29T11:05:34.884Z,184.05
2023-03-29T11:06:34.871Z,184.91
2023-03-29T11:11:33.855Z,185.42
2023-03-29T11:12:34.824Z,187.90
2023-03-29T11:13:35.156Z,185.20
2023-03-29T11:15:34.257Z,186.80
2023-03-29T11:16:34.790Z,186.97
2023-03-29T11:19:33.797Z,190.40
2023-03-29T11:20:34.791Z,192.99
2023-03-29T11:21:34.792Z,191.90
2023-03-29T11:22:35.167Z,193.44
2023-03-29T11:24:34.072Z,195.76
2023-03-29T11:25:34.920Z,198.88
2023-03-29T11:26:34.719Z,197.72
2023-03-29T11:27:34.761Z,197.13
2023-03-29T11:28:34.758Z,199.44
2023-03-29T11:30:33.685Z,201.01
2023-03-29T11:31:35.919Z,199.75
2023-03-29T11:32:34.714Z,199.82
2023-03-29T11:35:33.663Z,201.95
2023-03-29T11:36:34.644Z,203.31
2023-03-29T11:37:35.311Z,203.68
2023-03-29T11:39:34.574Z,201.47
2023-03-29T11:40:35.570Z,199.49
2023-03-29T11:44:33.596Z,199.07
2023-03-29T11:45:34.570Z,199.77
2023-03-29T11:46:34.605Z,197.77
2023-03-29T11:50:36.029Z,197.85
2023-03-29T11:51:34.554Z,200.39
2023-03-29T11:52:34.535Z,201.20
2023-03-29T11:56:33.821Z,201.85
2023-03-29T11:57:34.476Z,198.68
2023-03-29T12:02:33.543Z,201.16
2023-03-29T12:03:34.595Z,200.93
2023-03-29T12:05:33.433Z,202.33
2023-03-29T12:06:34.420Z,197.86
2023-03-29T12:07:34.420Z,200.67
2023-03-29T12:09:33.410Z,168.27
2023-03-29T12:10:34.384Z,116.24
2023-03-29T12:11:34.387Z,76.42
2023-03-29T12:13:33.360Z,101.82
2023-03-29T12:14:34.370Z,76.08
2023-03-29T12:15:34.504Z,50.94
2023-03-29T12:16:34.415Z,33.64
2023-03-29T12:19:33.342Z,54.52
2023-03-29T12:20:34.327Z,47.27
2023-03-29T12:21:33.322Z,41.01
2023-03-29T12:22:34.302Z,44.21
2023-03-29T12:23:33.299Z,46.47
2023-03-29T12:24:34.295Z,58.02
2023-03-29T12:27:33.277Z,103.84
2023-03-29T12:28:34.268Z,115.73
2023-03-29T12:29:34.273Z,112.46
2023-03-29T12:34:33.272Z,128.54
2023-03-29T12:35:34.449Z,149.01
2023-03-29T12:36:34.370Z,183.98
2023-03-29T12:37:34.367Z,200.14
2023-03-29T12:38:34.377Z,206.89
2023-03-29T12:39:34.377Z,213.80
2023-03-29T12:41:33.381Z,210.52
2023-03-29T12:42:34.405Z,209.76
2023-03-29T12:44:33.504Z,223.41
2023-03-29T12:45:34.470Z,225.96
2023-03-29T12:46:34.610Z,179.67
2023-03-29T12:47:34.634Z,137.78
2023-03-29T12:50:33.659Z,48.71
2023-03-29T12:51:33.675Z,50.23
2023-03-29T12:52:33.683Z,50.60
2023-03-29T12:53:34.721Z,58.71
2023-03-29T12:54:34.769Z,72.53
2023-03-29T12:55:34.773Z,88.99
2023-03-29T12:56:34.765Z,101.54
2023-03-29T12:57:34.791Z,116.84
2023-03-29T12:58:34.852Z,127.51
2023-03-29T13:01:34.024Z,154.73
2023-03-29T13:02:35.043Z,149.88
2023-03-29T13:03:34.958Z,147.72
2023-03-29T13:04:35.047Z,149.91
2023-03-29T13:05:35.110Z,152.34
2023-03-29T13:06:35.118Z,153.09
2023-03-29T13:07:35.182Z,156.19
2023-03-29T13:08:35.220Z,158.96
2023-03-29T13:09:35.283Z,163.26
2023-03-29T13:10:35.281Z,173.46
2023-03-29T13:11:35.317Z,174.61
2023-03-29T13:12:35.350Z,177.22
2023-03-29T13:13:35.368Z,176.35
2023-03-29T13:14:35.415Z,170.80
2023-03-29T13:15:35.461Z,171.38
2023-03-29T13:18:34.419Z,176.06
2023-03-29T13:19:35.483Z,179.86
2023-03-29T13:22:34.404Z,198.89
2023-03-29T13:23:35.411Z,194.45
2023-03-29T13:24:35.426Z,190.03
2023-03-29T13:25:34.412Z,190.69
2023-03-29T13:26:35.427Z,190.65
2023-03-29T13:27:35.394Z,190.05
2023-03-29T13:29:34.456Z,190.50
2023-03-29T13:30:35.436Z,187.64
2023-03-29T13:31:35.495Z,186.64
2023-03-29T13:32:35.499Z,186.68
2023-03-29T13:33:35.506Z,186.82
2023-03-29T13:34:35.497Z,185.81
2023-03-29T13:35:35.610Z,185.33
2023-03-29T13:39:34.610Z,187.87
2023-03-29T13:40:35.587Z,186.87
2023-03-29T13:41:35.612Z,187.64
2023-03-29T13:45:34.653Z,190.33
2023-03-29T13:46:35.728Z,191.17
2023-03-29T13:47:35.735Z,194.14
2023-03-29T13:48:35.810Z,193.68
2023-03-29T13:50:34.717Z,205.17
2023-03-29T13:51:35.768Z,212.72
2023-03-29T13:53:34.736Z,215.43
2023-03-29T13:55:36.746Z,207.90
2023-03-29T13:56:35.718Z,206.26
2023-03-29T14:01:34.698Z,201.60
2023-03-29T14:02:36.760Z,204.36
2023-03-29T14:04:34.641Z,201.10
2023-03-29T14:05:35.641Z,203.21
2023-03-29T14:10:34.583Z,198.90
2023-03-29T14:11:35.576Z,199.70
2023-03-29T14:12:35.576Z,199.38
2023-03-29T14:14:38.583Z,196.35
2023-03-29T14:15:35.753Z,196.48
2023-03-29T14:18:34.747Z,196.39
2023-03-29T14:19:35.782Z,195.84
2023-03-29T14:20:35.764Z,194.95
2023-03-29T14:21:35.786Z,194.56
2023-03-29T14:22:35.784Z,194.56
2023-03-29T14:23:35.831Z,196.36
2023-03-29T14:24:35.792Z,195.29
2023-03-29T14:25:35.798Z,196.12
2023-03-29T14:26:35.808Z,194.38
2023-03-29T14:27:35.804Z,194.99
2023-03-29T14:28:35.828Z,194.32
2023-03-29T14:29:35.850Z,194.53
2023-03-29T14:30:35.878Z,193.46
2023-03-29T14:31:35.971Z,193.17
2023-03-29T14:32:35.954Z,192.86
2023-03-29T14:33:35.882Z,192.87
2023-03-29T14:34:35.906Z,192.48
2023-03-29T14:35:35.972Z,191.81
2023-03-29T14:36:36.031Z,191.95
2023-03-29T14:37:35.956Z,191.61
2023-03-29T14:38:35.962Z,193.80
2023-03-29T14:39:36.001Z,191.71
2023-03-29T14:40:36.018Z,192.79
2023-03-29T14:41:36.030Z,191.95
2023-03-29T14:42:36.046Z,190.90
2023-03-29T14:43:36.059Z,191.71
2023-03-29T14:44:36.085Z,190.70
2023-03-29T14:45:36.108Z,189.97
2023-03-29T14:46:36.171Z,191.25
2023-03-29T14:47:36.157Z,190.40
2023-03-29T14:48:36.146Z,190.99
2023-03-29T14:49:36.159Z,189.95
2023-03-29T14:51:35.178Z,189.52
2023-03-29T14:52:36.183Z,189.26
2023-03-29T14:53:36.185Z,190.12
2023-03-29T14:54:36.212Z,189.56
2023-03-29T14:55:36.237Z,189.22
2023-03-29T14:56:36.230Z,190.26
2023-03-29T14:57:36.262Z,189.29
2023-03-29T14:58:36.293Z,189.41
2023-03-29T14:59:36.312Z,187.32
2023-03-29T15:00:36.362Z,188.47
2023-03-29T15:01:36.436Z,188.19
2023-03-29T15:03:35.558Z,186.83
2023-03-29T15:04:36.527Z,187.15
2023-03-29T15:05:36.594Z,187.02
2023-03-29T15:06:36.651Z,185.20
2023-03-29T15:07:37.344Z,184.68
2023-03-29T15:12:35.985Z,183.94
2023-03-29T15:13:36.986Z,184.40
2023-03-29T15:14:37.038Z,184.79
2023-03-29T15:15:37.483Z,186.51
2023-03-29T15:16:37.153Z,185.91
2023-03-29T15:17:50.472Z,185.07
2023-03-29T15:18:37.193Z,185.23
2023-03-29T15:23:36.131Z,186.18
2023-03-29T15:24:37.126Z,185.27
2023-03-29T15:27:36.132Z,186.51
2023-03-29T15:28:37.092Z,186.29
2023-03-29T15:30:51.667Z,186.82
2023-03-29T15:31:37.197Z,187.21
2023-03-29T15:32:37.168Z,187.82
2023-03-29T15:33:37.244Z,187.75
2023-03-29T15:34:37.052Z,188.54
2023-03-29T15:35:37.100Z,187.97
2023-03-29T15:36:37.033Z,186.32
2023-03-29T15:37:37.056Z,187.05
2023-03-29T15:38:43.034Z,187.14
2023-03-29T15:39:37.125Z,187.27
2023-03-29T15:40:37.155Z,186.75
2023-03-29T15:41:36.088Z,187.18
2023-03-29T15:42:37.087Z,186.89
2023-03-29T15:43:37.088Z,188.30
2023-03-29T15:44:37.064Z,186.17
2023-03-29T15:45:37.055Z,186.78
2023-03-29T15:46:37.122Z,186.54
2023-03-29T15:47:36.172Z,185.91
2023-03-29T15:48:37.053Z,185.35
2023-03-29T15:49:37.051Z,186.45
2023-03-29T15:50:36.067Z,186.91
2023-03-29T15:51:37.083Z,184.83